Time;durP1;ratioP1;P1;durP2;ratioP2;P2;SDS_P1;SDS_P2;PMS_P1;PMS_P2;Temp;Humidity;BMP_temperature;BMP_pressure;BME280_temperature;BME280_humidity;BME280_pressure;Samples;Min_cycle;Max_cycle;Signal;HPM_P1;HPM_P2
2022/06/10 00:01:11;;;;;;;15.93;4.82;;;12.80;99.90;;;;;;5009757;28;20041;-72
2022/06/10 00:03:37;;;;;;;15.05;4.88;;;12.80;99.90;;;;;;5028591;28;20366;-73
2022/06/10 00:06:06;;;;;;;13.27;4.68;;;12.80;99.90;;;;;;5027896;28;20399;-74
2022/06/10 00:08:35;;;;;;;13.07;5.03;;;12.80;99.90;;;;;;5008968;28;20545;-73
2022/06/10 00:11:02;;;;;;;14.95;5.20;;;12.70;99.90;;;;;;5013491;28;20084;-74
2022/06/10 00:13:31;;;;;;;16.83;4.70;;;12.70;99.90;;;;;;5010914;28;20049;-73
2022/06/10 00:15:57;;;;;;;12.40;4.85;;;12.70;99.90;;;;;;5027174;28;20083;-73
2022/06/10 00:18:25;;;;;;;11.00;5.18;;;12.70;99.90;;;;;;5011944;28;20240;-73
2022/06/10 00:20:51;;;;;;;12.45;4.82;;;12.60;99.90;;;;;;5023769;28;20059;-73
2022/06/10 00:23:17;;;;;;;11.05;4.55;;;12.60;99.90;;;;;;5013553;28;20080;-73
2022/06/10 00:25:45;;;;;;;11.13;4.70;;;12.60;99.90;;;;;;5012610;28;20081;-73
2022/06/10 00:28:11;;;;;;;13.77;4.93;;;12.60;99.90;;;;;;5027417;28;20389;-72
2022/06/10 00:30:37;;;;;;;13.95;4.63;;;12.60;99.90;;;;;;5015449;28;20493;-73
2022/06/10 00:33:03;;;;;;;10.68;4.78;;;12.60;99.90;;;;;;5007149;28;20061;-73
2022/06/10 00:35:29;;;;;;;12.98;4.22;;;12.50;99.90;;;;;;5024457;28;20144;-73
2022/06/10 00:37:56;;;;;;;9.63;3.97;;;12.60;99.90;;;;;;5029246;28;20558;-73
2022/06/10 00:40:38;;;;;;;12.00;4.32;;;12.60;99.90;;;;;;5027397;28;20132;-73
2022/06/10 00:43:04;;;;;;;10.05;4.13;;;12.60;99.90;;;;;;5004659;28;20042;-73
2022/06/10 00:45:48;;;;;;;14.32;4.70;;;12.50;99.90;;;;;;4995781;28;20036;-73
2022/06/10 00:48:38;;;;;;;13.73;4.40;;;12.50;99.90;;;;;;5025671;28;20049;-73
2022/06/10 00:51:33;;;;;;;15.77;4.60;;;12.50;99.90;;;;;;5007978;28;20144;-72
2022/06/10 00:54:16;;;;;;;9.52;4.63;;;12.50;99.90;;;;;;5029130;28;20088;-72
2022/06/10 00:56:46;;;;;;;12.80;4.33;;;12.50;99.90;;;;;;5013644;28;20058;-73
2022/06/10 00:59:17;;;;;;;12.90;4.38;;;12.50;99.90;;;;;;5026862;28;20037;-74
2022/06/10 01:01:43;;;;;;;7.97;4.35;;;12.50;99.90;;;;;;5010263;28;20447;-73
2022/06/10 01:04:09;;;;;;;13.25;4.55;;;12.40;99.90;;;;;;5028876;28;20050;-73
2022/06/10 01:06:35;;;;;;;13.38;4.55;;;12.40;99.90;;;;;;5010572;28;20504;-73
2022/06/10 01:09:02;;;;;;;11.95;4.50;;;12.40;99.90;;;;;;5030182;28;20109;-73
2022/06/10 01:11:36;;;;;;;13.90;4.50;;;12.40;99.90;;;;;;5028376;28;20053;-73
2022/06/10 01:14:59;;;;;;;11.15;4.22;;;12.40;99.90;;;;;;5026909;28;20045;-72
2022/06/10 01:17:51;;;;;;;11.13;4.20;;;12.40;99.90;;;;;;4986071;28;20458;-73
2022/06/10 01:20:36;;;;;;;11.52;4.15;;;12.30;99.90;;;;;;4978609;28;20150;-73
2022/06/10 01:23:20;;;;;;;14.25;4.15;;;12.40;99.90;;;;;;5020603;28;20042;-73
2022/06/10 01:26:23;;;;;;;12.15;4.20;;;12.30;99.90;;;;;;5030156;28;20099;-73
2022/06/10 01:29:06;;;;;;;16.38;4.55;;;12.30;99.90;;;;;;5027800;28;20061;-73
2022/06/10 01:31:39;;;;;;;10.20;4.30;;;12.30;99.90;;;;;;5025095;28;20047;-73
2022/06/10 01:34:10;;;;;;;;;;;12.30;99.90;;;;;;5025754;28;20052;-73
2022/06/10 01:36:53;;;;;;;14.35;4.65;;;12.30;99.90;;;;;;4990525;28;19929;-73
2022/06/10 01:39:34;;;;;;;9.10;4.07;;;12.30;99.90;;;;;;5026574;28;20042;-73
2022/06/10 01:42:13;;;;;;;15.40;4.72;;;12.20;99.90;;;;;;5019634;28;20132;-74
2022/06/10 01:44:52;;;;;;;13.70;4.35;;;12.20;99.90;;;;;;5025766;28;20515;-73
2022/06/10 01:47:26;;;;;;;12.93;4.70;;;12.20;99.90;;;;;;5006574;28;20419;-73
2022/06/10 01:50:21;;;;;;;13.57;4.72;;;12.20;99.90;;;;;;5020786;28;20408;-72
2022/06/10 01:53:13;;;;;;;13.35;4.18;;;12.10;99.90;;;;;;5021050;28;20045;-72
2022/06/10 01:55:41;;;;;;;15.45;4.50;;;12.10;99.90;;;;;;5024684;28;20056;-72
2022/06/10 01:58:09;;;;;;;12.23;3.90;;;12.20;99.90;;;;;;5019483;28;20136;-72
2022/06/10 02:00:39;;;;;;;16.25;4.30;;;12.20;99.90;;;;;;5002608;28;20056;-73
2022/06/10 02:03:34;;;;;;;17.55;4.43;;;12.20;99.90;;;;;;5025197;28;20516;-73
2022/06/10 02:06:05;;;;;;;13.63;4.10;;;12.20;99.90;;;;;;5016000;28;20052;-74
2022/06/10 02:08:47;;;;;;;11.93;3.50;;;12.20;99.90;;;;;;5002310;28;20046;-72
2022/06/10 02:11:15;;;;;;;21.15;4.20;;;12.20;99.90;;;;;;5021306;28;20641;-72
2022/06/10 02:13:52;;;;;;;17.70;4.38;;;12.20;99.90;;;;;;5006590;28;20038;-73
2022/06/10 02:16:23;;;;;;;14.00;3.70;;;12.20;99.90;;;;;;4999666;28;20072;-72
2022/06/10 02:19:00;;;;;;;13.00;3.58;;;12.10;99.90;;;;;;4998356;28;20050;-72
2022/06/10 02:21:43;;;;;;;13.18;3.40;;;12.10;99.90;;;;;;5012466;28;20053;-72
2022/06/10 02:24:27;;;;;;;12.18;3.53;;;12.20;99.90;;;;;;5023239;28;20052;-72
2022/06/10 02:26:57;;;;;;;15.10;4.00;;;12.10;99.90;;;;;;5024137;28;20056;-73
2022/06/10 02:29:29;;;;;;;14.23;3.92;;;12.20;99.90;;;;;;5013634;28;20077;-72
2022/06/10 02:32:00;;;;;;;15.25;4.07;;;12.10;99.90;;;;;;5003898;28;20077;-74
2022/06/10 02:34:29;;;;;;;15.32;4.13;;;12.10;99.90;;;;;;5012549;28;20049;-73
2022/06/10 02:37:17;;;;;;;11.13;4.43;;;12.10;99.90;;;;;;5022648;28;20547;-73
2022/06/10 02:40:01;;;;;;;13.13;4.32;;;12.10;99.90;;;;;;5017014;28;20080;-73
2022/06/10 02:42:45;;;;;;;16.63;4.60;;;12.10;99.90;;;;;;5002313;28;20485;-73
2022/06/10 02:45:25;;;;;;;19.48;4.68;;;12.00;99.90;;;;;;5019857;28;20156;-72
2022/06/10 02:48:13;;;;;;;18.38;5.00;;;12.00;99.90;;;;;;5022315;28;20060;-73
2022/06/10 02:50:39;;;;;;;12.40;5.15;;;12.00;99.90;;;;;;5019353;28;20668;-73
2022/06/10 02:53:07;;;;;;;13.02;4.95;;;12.00;99.90;;;;;;5003901;28;20120;-73
2022/06/10 02:55:34;;;;;;;21.30;5.45;;;11.90;99.90;;;;;;5001295;28;20049;-74
2022/06/10 03:01:30;;;;;;;16.88;5.25;;;11.90;99.90;;;;;;4995682;28;20072;-73
2022/06/10 03:04:22;;;;;;;11.20;4.97;;;11.90;99.90;;;;;;4999562;28;20562;-73
2022/06/10 03:06:59;;;;;;;14.47;4.80;;;11.80;99.90;;;;;;5019569;28;20148;-73
2022/06/10 03:09:42;;;;;;;16.38;4.80;;;11.80;99.90;;;;;;5025770;28;20570;-73
2022/06/10 03:12:27;;;;;;;15.77;5.40;;;11.80;99.90;;;;;;5018551;28;20046;-73
2022/06/10 03:15:30;;;;;;;21.13;5.63;;;11.90;99.90;;;;;;5025778;28;20077;-73
2022/06/10 03:18:02;;;;;;;16.73;5.47;;;11.90;99.90;;;;;;5026648;28;20059;-73
2022/06/10 03:20:52;;;;;;;20.80;5.88;;;11.90;99.90;;;;;;5006650;28;20041;-73
2022/06/10 03:23:45;;;;;;;14.90;5.13;;;12.00;99.90;;;;;;5023203;28;20037;-73
2022/06/10 03:26:23;;;;;;;25.02;5.40;;;12.00;99.90;;;;;;5016877;28;20107;-73
2022/06/10 03:29:01;;;;;;;14.80;5.38;;;12.10;99.90;;;;;;5010007;28;20059;-73
2022/06/10 03:31:44;;;;;;;17.73;4.65;;;12.10;99.90;;;;;;5023724;28;20068;-73
2022/06/10 03:34:34;;;;;;;13.90;3.95;;;12.20;99.90;;;;;;5010419;28;20038;-73
2022/06/10 03:37:02;;;;;;;18.30;4.50;;;12.20;99.90;;;;;;5026772;28;20048;-73
2022/06/10 03:39:28;;;;;;;14.50;4.40;;;12.20;99.90;;;;;;5007513;28;20136;-73
2022/06/10 03:42:08;;;;;;;12.23;4.80;;;12.30;99.90;;;;;;5010345;28;20552;-73
2022/06/10 03:44:33;;;;;;;11.95;4.40;;;12.30;99.90;;;;;;5008536;28;20063;-73
2022/06/10 03:47:00;;;;;;;12.82;4.07;;;12.30;99.90;;;;;;4998631;28;20037;-73
2022/06/10 03:49:38;;;;;;;15.80;4.65;;;12.30;99.90;;;;;;5022885;28;20069;-73
2022/06/10 03:52:05;;;;;;;14.50;4.20;;;12.30;99.90;;;;;;5005527;28;20037;-73
2022/06/10 03:54:31;;;;;;;14.93;4.85;;;12.30;99.90;;;;;;5006784;28;20128;-73
2022/06/10 03:56:57;;;;;;;13.00;3.90;;;12.40;99.90;;;;;;5018428;28;20048;-73
2022/06/10 03:59:22;;;;;;;12.13;3.60;;;12.50;99.90;;;;;;5010073;28;20084;-73
2022/06/10 04:01:48;;;;;;;12.48;4.00;;;12.50;99.90;;;;;;5030744;28;20491;-73
2022/06/10 04:04:14;;;;;;;11.77;4.43;;;12.60;99.90;;;;;;5008197;28;20086;-73
2022/06/10 04:06:40;;;;;;;12.15;3.90;;;12.60;99.90;;;;;;5026293;28;20451;-73
2022/06/10 04:09:06;;;;;;;11.23;4.05;;;12.60;99.90;;;;;;5023327;28;20107;-73
2022/06/10 04:11:32;;;;;;;13.63;4.20;;;12.60;99.90;;;;;;5010180;28;20046;-73
2022/06/10 04:13:58;;;;;;;22.25;4.75;;;12.70;99.90;;;;;;4990166;28;20046;-73
2022/06/10 04:16:24;;;;;;;20.52;4.55;;;12.80;99.90;;;;;;5007989;28;20045;-72
2022/06/10 04:18:49;;;;;;;13.85;4.68;;;12.80;99.90;;;;;;5020921;28;20116;-74
2022/06/10 04:21:15;;;;;;;14.07;5.03;;;12.90;99.90;;;;;;5027492;28;20076;-73
2022/06/10 04:23:41;;;;;;;19.90;4.43;;;12.90;99.90;;;;;;5030702;28;20052;-72
2022/06/10 04:26:06;;;;;;;16.50;4.78;;;12.90;99.90;;;;;;5011006;28;20120;-72
2022/06/10 04:28:32;;;;;;;15.75;4.45;;;13.00;99.90;;;;;;5007573;28;20053;-73
2022/06/10 04:30:58;;;;;;;14.13;4.00;;;13.00;99.90;;;;;;5003468;28;20054;-72
2022/06/10 04:33:24;;;;;;;12.48;4.25;;;13.10;99.90;;;;;;5005567;28;20401;-72
2022/06/10 04:35:51;;;;;;;12.85;4.03;;;13.10;99.90;;;;;;5009015;28;20048;-72
2022/06/10 04:38:20;;;;;;;10.25;3.92;;;13.10;99.90;;;;;;5007513;28;20095;-72
2022/06/10 04:40:48;;;;;;;13.18;3.72;;;13.20;99.90;;;;;;5009133;28;20132;-72
2022/06/10 04:43:14;;;;;;;16.83;4.25;;;13.10;99.90;;;;;;5012509;28;20559;-72
2022/06/10 04:45:44;;;;;;;16.13;4.60;;;13.20;99.90;;;;;;5028868;28;20092;-72
2022/06/10 04:48:11;;;;;;;11.23;3.97;;;13.20;99.90;;;;;;5007877;28;20091;-71
2022/06/10 04:50:37;;;;;;;12.55;3.80;;;13.10;99.90;;;;;;5021558;28;20144;-72
2022/06/10 04:53:03;;;;;;;20.48;4.05;;;13.20;99.90;;;;;;5028765;28;20038;-71
2022/06/10 04:55:29;;;;;;;16.45;4.72;;;13.20;99.90;;;;;;5028026;28;20042;-71
2022/06/10 04:57:55;;;;;;;19.17;4.43;;;13.30;99.90;;;;;;5004066;28;20523;-72
2022/06/10 05:00:27;;;;;;;14.43;4.38;;;13.30;99.90;;;;;;5020218;28;20049;-71
2022/06/10 05:02:53;;;;;;;15.68;4.05;;;13.40;99.90;;;;;;5026437;28;20065;-71
2022/06/10 05:05:20;;;;;;;16.05;4.65;;;13.50;99.90;;;;;;5019429;28;20446;-72
2022/06/10 05:07:45;;;;;;;15.10;3.90;;;13.60;99.90;;;;;;5012159;28;20263;-71
2022/06/10 05:10:12;;;;;;;14.23;5.20;;;13.60;99.90;;;;;;5026209;28;20587;-72
2022/06/10 05:12:38;;;;;;;8.43;3.90;;;13.70;99.90;;;;;;5031156;28;20527;-72
2022/06/10 05:15:05;;;;;;;12.95;4.00;;;13.80;99.90;;;;;;5031574;28;20046;-72
2022/06/10 05:17:30;;;;;;;12.18;3.95;;;13.90;99.90;;;;;;5032558;28;20113;-72
2022/06/10 05:19:56;;;;;;;12.27;4.00;;;14.00;99.90;;;;;;5034774;28;20057;-72
2022/06/10 05:22:22;;;;;;;19.10;4.60;;;14.00;99.90;;;;;;5023751;28;20107;-72
2022/06/10 05:24:48;;;;;;;16.15;4.78;;;14.10;99.90;;;;;;5004084;28;20079;-72
2022/06/10 05:27:13;;;;;;;17.52;4.28;;;14.20;99.90;;;;;;5019373;28;20625;-73
2022/06/10 05:29:39;;;;;;;16.55;4.82;;;14.20;99.90;;;;;;4993236;28;20049;-73
2022/06/10 05:32:05;;;;;;;15.75;4.72;;;14.20;99.90;;;;;;5019742;28;20148;-71
2022/06/10 05:34:46;;;;;;;20.27;5.25;;;14.30;99.90;;;;;;5007647;28;20122;-72
2022/06/10 05:37:18;;;;;;;16.05;4.53;;;14.20;99.90;;;;;;5034195;28;20033;-73
2022/06/10 05:39:45;;;;;;;15.93;4.85;;;14.20;99.90;;;;;;5007424;28;20049;-70
2022/06/10 05:42:11;;;;;;;15.48;4.70;;;14.20;99.90;;;;;;5020000;28;20057;-70
2022/06/10 05:44:41;;;;;;;13.02;4.70;;;14.10;99.90;;;;;;5023915;28;20041;-70
2022/06/10 05:47:10;;;;;;;15.57;4.68;;;14.10;99.90;;;;;;5028844;28;20052;-71
2022/06/10 05:49:37;;;;;;;15.75;4.75;;;14.20;99.90;;;;;;5024829;28;20417;-70
2022/06/10 05:52:05;;;;;;;16.50;4.22;;;14.20;99.90;;;;;;5025395;28;20681;-71
2022/06/10 05:54:30;;;;;;;18.23;5.30;;;14.20;99.90;;;;;;5008905;28;20289;-72
2022/06/10 05:56:56;;;;;;;12.93;4.90;;;14.20;99.90;;;;;;5024141;28;21334;-79
2022/06/10 05:59:22;;;;;;;16.23;4.60;;;14.30;99.90;;;;;;5013414;28;20033;-71
2022/06/10 06:01:48;;;;;;;15.50;5.15;;;14.30;99.90;;;;;;5025604;28;20084;-71
2022/06/10 06:04:14;;;;;;;16.05;5.05;;;14.30;99.90;;;;;;5002571;28;20049;-72
2022/06/10 06:06:41;;;;;;;13.70;4.80;;;14.40;99.90;;;;;;5008177;28;20483;-73
2022/06/10 06:09:07;;;;;;;19.50;5.00;;;14.40;99.90;;;;;;5005867;28;20095;-71
2022/06/10 06:11:33;;;;;;;13.13;4.47;;;14.50;99.90;;;;;;5024782;28;20041;-71
2022/06/10 06:13:59;;;;;;;17.83;5.82;;;14.60;99.90;;;;;;5006936;28;20759;-71
2022/06/10 06:16:24;;;;;;;13.68;5.03;;;14.70;99.90;;;;;;4999908;28;20053;-71
2022/06/10 06:18:52;;;;;;;20.88;6.07;;;14.70;99.90;;;;;;4997425;28;20042;-71
2022/06/10 06:21:18;;;;;;;15.07;5.63;;;14.80;99.90;;;;;;5000289;28;20052;-70
2022/06/10 06:23:44;;;;;;;15.63;5.50;;;14.80;99.90;;;;;;4994244;28;20041;-70
2022/06/10 06:26:17;;;;;;;16.55;6.32;;;14.80;99.90;;;;;;4988383;28;20556;-70
2022/06/10 06:28:43;;;;;;;24.65;6.97;;;14.90;99.90;;;;;;5006046;28;20077;-71
2022/06/10 06:31:10;;;;;;;14.05;5.88;;;14.90;99.90;;;;;;4999802;28;20042;-76
2022/06/10 06:33:35;;;;;;;14.55;6.38;;;14.90;99.90;;;;;;4991127;28;20049;-76
2022/06/10 06:36:01;;;;;;;16.58;6.85;;;15.00;99.90;;;;;;4983581;28;20458;-74
2022/06/10 06:38:28;;;;;;;11.48;6.90;;;15.10;99.90;;;;;;5000525;28;20103;-74
2022/06/10 06:40:54;;;;;;;18.33;7.82;;;15.10;99.90;;;;;;5002125;28;20072;-75
2022/06/10 06:43:19;;;;;;;20.17;7.45;;;15.20;99.90;;;;;;5005742;28;20497;-75
2022/06/10 06:45:45;;;;;;;17.98;7.78;;;15.20;99.90;;;;;;4981675;28;20053;-75
2022/06/10 06:48:12;;;;;;;15.60;8.32;;;15.30;99.90;;;;;;4983881;28;20072;-75
2022/06/10 06:50:49;;;;;;;16.35;8.18;;;15.30;99.90;;;;;;4982797;28;20050;-75
2022/06/10 06:53:15;;;;;;;17.02;8.80;;;15.30;99.90;;;;;;4997830;28;21426;-74
2022/06/10 06:55:41;;;;;;;16.00;8.57;;;15.40;99.90;;;;;;5002370;28;20042;-74
2022/06/10 06:58:17;;;;;;;17.58;9.25;;;15.30;99.90;;;;;;4983045;28;20037;-74
2022/06/10 07:00:43;;;;;;;16.80;8.80;;;15.40;99.90;;;;;;4983411;28;20704;-75
2022/06/10 07:03:09;;;;;;;22.52;9.95;;;15.50;99.90;;;;;;4984862;28;20105;-73
2022/06/10 07:05:35;;;;;;;12.73;7.65;;;15.40;99.90;;;;;;4991353;28;20042;-78
2022/06/10 07:08:02;;;;;;;13.60;9.50;;;15.50;99.90;;;;;;5000235;28;20052;-79
2022/06/10 07:10:28;;;;;;;12.40;8.32;;;15.40;99.90;;;;;;5010273;28;20046;-82
2022/06/10 07:12:54;;;;;;;10.93;8.57;;;15.40;99.90;;;;;;5009498;28;20464;-83
2022/06/10 07:15:22;;;;;;;11.35;9.27;;;15.40;99.90;;;;;;5010841;28;20080;-84
2022/06/10 07:17:48;;;;;;;10.98;8.50;;;15.50;99.90;;;;;;5025541;28;20132;-82
2022/06/10 07:20:28;;;;;;;12.63;8.88;;;15.50;99.90;;;;;;5006818;28;20046;-83
2022/06/10 07:22:54;;;;;;;10.95;8.80;;;15.50;99.90;;;;;;5005794;28;20121;-81
2022/06/10 07:25:21;;;;;;;11.77;8.57;;;15.50;99.90;;;;;;5030641;28;20045;-82
2022/06/10 07:27:47;;;;;;;12.05;9.18;;;15.60;99.90;;;;;;5028866;28;20045;-81
2022/06/10 07:30:16;;;;;;;13.40;9.50;;;15.60;99.90;;;;;;5009241;28;20041;-80
2022/06/10 07:32:43;;;;;;;14.20;9.63;;;15.60;99.90;;;;;;5009692;28;20511;-82
2022/06/10 07:35:10;;;;;;;14.13;10.38;;;15.60;99.90;;;;;;5027090;28;20051;-82
2022/06/10 07:37:36;;;;;;;21.85;10.50;;;15.70;99.90;;;;;;5027271;28;20343;-82
2022/06/10 07:40:02;;;;;;;24.25;11.25;;;15.60;99.90;;;;;;5031177;28;20051;-79
2022/06/10 07:42:28;;;;;;;23.52;11.18;;;15.60;99.90;;;;;;5011044;28;20080;-80
2022/06/10 07:44:54;;;;;;;22.75;11.85;;;15.60;99.90;;;;;;5032080;28;20397;-80
2022/06/10 07:47:21;;;;;;;20.27;11.45;;;15.50;99.90;;;;;;5008094;28;20124;-78
2022/06/10 07:49:46;;;;;;;23.92;9.98;;;15.50;99.90;;;;;;5025558;28;20041;-77
2022/06/10 07:52:13;;;;;;;23.02;10.13;;;15.50;99.90;;;;;;5027025;28;20048;-77
2022/06/10 07:54:39;;;;;;;18.48;10.82;;;15.60;99.90;;;;;;5023652;28;20416;-79
2022/06/10 07:57:06;;;;;;;19.30;9.90;;;15.60;99.90;;;;;;5021683;28;20065;-78
2022/06/10 07:59:33;;;;;;;20.88;11.23;;;15.60;99.90;;;;;;5009176;28;20058;-76
2022/06/10 08:01:59;;;;;;;21.27;9.85;;;15.70;99.90;;;;;;5018995;28;20049;-78
2022/06/10 08:04:24;;;;;;;16.75;8.60;;;15.60;99.90;;;;;;5030306;28;20418;-78
2022/06/10 08:06:50;;;;;;;17.48;9.75;;;15.70;99.90;;;;;;5004547;28;20064;-78
2022/06/10 08:09:20;;;;;;;20.20;9.50;;;15.70;99.90;;;;;;5003020;28;20136;-77
2022/06/10 08:11:47;;;;;;;16.10;9.57;;;15.70;99.90;;;;;;5021804;28;20096;-78
2022/06/10 08:14:13;;;;;;;20.88;10.52;;;15.70;99.90;;;;;;5020741;28;20099;-78
2022/06/10 08:16:39;;;;;;;21.42;10.60;;;15.80;99.90;;;;;;5012314;28;20077;-75
2022/06/10 08:19:05;;;;;;;22.63;11.40;;;15.90;99.90;;;;;;5007858;28;20038;-74
2022/06/10 08:24:16;;;;;;;19.08;10.70;;;16.00;99.90;;;;;;5027505;28;20116;-73
2022/06/10 08:26:42;;;;;;;16.40;10.27;;;16.10;99.90;;;;;;5013988;28;20200;-73
2022/06/10 08:29:08;;;;;;;22.98;11.48;;;16.20;99.90;;;;;;5010513;28;20042;-73
2022/06/10 08:31:34;;;;;;;23.38;9.60;;;16.20;99.90;;;;;;5023291;28;20046;-75
2022/06/10 08:34:02;;;;;;;25.05;11.15;;;16.40;99.90;;;;;;5024369;28;20073;-74
2022/06/10 08:36:28;;;;;;;15.98;9.18;;;16.40;99.90;;;;;;5019125;28;20498;-74
2022/06/10 08:38:54;;;;;;;17.05;7.75;;;16.50;99.90;;;;;;5031074;28;20072;-71
2022/06/10 08:41:46;;;;;;;19.45;7.93;;;16.50;99.90;;;;;;5011805;28;20076;-74
2022/06/10 08:44:46;;;;;;;15.77;7.25;;;16.40;99.90;;;;;;5026294;28;20037;-73
2022/06/10 08:47:44;;;;;;;14.80;6.38;;;16.40;99.90;;;;;;5015159;28;20146;-74
2022/06/10 08:50:37;;;;;;;19.00;7.13;;;16.50;99.90;;;;;;5018888;28;20420;-73
2022/06/10 08:53:12;;;;;;;19.63;6.75;;;16.60;99.90;;;;;;5022398;28;20069;-73
2022/06/10 08:56:06;;;;;;;13.45;7.15;;;16.70;99.90;;;;;;5008055;28;20568;-74
2022/06/10 08:58:38;;;;;;;15.20;7.50;;;16.80;99.90;;;;;;5025149;28;20095;-75
2022/06/10 09:01:13;;;;;;;19.45;7.25;;;16.80;99.90;;;;;;5010846;28;20052;-74
2022/06/10 09:03:46;;;;;;;13.57;6.53;;;16.80;99.90;;;;;;5006778;28;20143;-74
2022/06/10 09:06:37;;;;;;;19.33;7.65;;;16.90;99.90;;;;;;5026979;28;20041;-72
2022/06/10 09:09:06;;;;;;;24.60;9.18;;;16.90;99.90;;;;;;5011979;28;20560;-76
2022/06/10 09:11:42;;;;;;;21.27;8.38;;;16.90;99.90;;;;;;5001684;28;20053;-75
2022/06/10 09:14:20;;;;;;;18.48;8.65;;;17.10;99.90;;;;;;5004437;28;20051;-77
2022/06/10 09:17:22;;;;;;;17.40;8.18;;;17.30;99.90;;;;;;5024913;28;20091;-76
2022/06/10 09:20:16;;;;;;;16.55;7.43;;;17.50;99.90;;;;;;5023935;28;20305;-75
2022/06/10 09:22:44;;;;;;;;;;;17.70;99.90;;;;;;5027388;28;20049;-76
2022/06/10 09:25:27;;;;;;;22.50;8.30;;;17.80;99.90;;;;;;5027766;28;19921;-74
2022/06/10 09:27:58;;;;;;;18.67;7.82;;;17.90;99.90;;;;;;5000328;28;20612;-75
2022/06/10 09:30:43;;;;;;;19.08;7.43;;;18.00;99.90;;;;;;5005673;28;20045;-75
2022/06/10 09:33:31;;;;;;;22.38;8.38;;;18.00;99.90;;;;;;5025097;28;20049;-71
2022/06/10 09:36:27;;;;;;;13.38;6.55;;;18.10;99.90;;;;;;5005834;28;20041;-72
2022/06/10 09:39:01;;;;;;;18.02;7.53;;;18.10;99.90;;;;;;4982003;28;20041;-72
2022/06/10 09:41:45;;;;;;;16.55;6.97;;;18.10;99.90;;;;;;5025277;28;20037;-73
2022/06/10 09:44:37;;;;;;;19.27;6.45;;;18.10;99.90;;;;;;5006015;28;20565;-73
2022/06/10 09:47:14;;;;;;;18.73;8.02;;;18.00;99.90;;;;;;5006210;28;20042;-72
2022/06/10 09:49:54;;;;;;;18.02;7.90;;;17.90;99.90;;;;;;5023467;28;20053;-72
2022/06/10 09:52:32;;;;;;;17.23;7.40;;;17.80;99.90;;;;;;5008059;28;20041;-72
2022/06/10 09:55:26;;;;;;;16.38;7.57;;;17.70;99.90;;;;;;5005521;28;20060;-74
2022/06/10 09:58:17;;;;;;;20.58;7.38;;;17.60;99.90;;;;;;5002875;28;20034;-72
2022/06/10 10:00:51;;;;;;;15.30;6.97;;;17.70;99.90;;;;;;5024347;28;20045;-70
2022/06/10 10:03:29;;;;;;;15.52;6.95;;;17.60;99.90;;;;;;5025090;28;20103;-69
2022/06/10 10:06:18;;;;;;;29.75;8.60;;;17.60;99.90;;;;;;5025705;28;20148;-74
2022/06/10 10:08:52;;;;;;;25.88;7.38;;;17.70;99.90;;;;;;5033779;28;20037;-73
2022/06/10 10:11:42;;;;;;;14.02;7.00;;;17.70;99.90;;;;;;5026805;28;22128;-74
2022/06/10 10:14:13;;;;;;;18.65;7.30;;;17.70;99.90;;;;;;5008971;28;20045;-73
2022/06/10 10:17:03;;;;;;;16.50;6.95;;;17.70;99.90;;;;;;5007502;28;20092;-74
2022/06/10 10:19:29;;;;;;;18.63;7.55;;;17.70;99.90;;;;;;5005540;28;20080;-73
2022/06/10 10:22:03;;;;;;;18.45;6.82;;;17.70;99.90;;;;;;5024157;28;20076;-73
2022/06/10 10:24:36;;;;;;;17.85;7.88;;;17.70;99.90;;;;;;5024547;28;20115;-73
2022/06/10 10:27:07;;;;;;;19.55;8.63;;;17.80;99.90;;;;;;5004627;28;20045;-73
2022/06/10 10:29:38;;;;;;;19.52;10.02;;;17.80;99.90;;;;;;5001295;28;20115;-72
2022/06/10 10:32:17;;;;;;;21.42;9.98;;;17.80;99.90;;;;;;5023256;28;20056;-76
2022/06/10 10:34:51;;;;;;;19.23;11.77;;;17.90;99.90;;;;;;5018059;28;20106;-78
2022/06/10 10:37:24;;;;;;;17.15;11.35;;;17.90;99.90;;;;;;5025232;28;20040;-78
2022/06/10 10:39:53;;;;;;;15.20;8.10;;;18.00;99.90;;;;;;5022140;28;20045;-77
2022/06/10 10:42:32;;;;;;;16.75;8.85;;;18.10;99.90;;;;;;5022896;28;20049;-76
2022/06/10 10:45:02;;;;;;;15.85;7.78;;;18.20;99.90;;;;;;5022594;28;20052;-77
2022/06/10 10:47:28;;;;;;;14.75;7.88;;;18.60;99.90;;;;;;5020465;28;20050;-77
2022/06/10 10:49:56;;;;;;;10.90;6.60;;;18.80;99.90;;;;;;5022415;28;20057;-77
2022/06/10 10:52:28;;;;;;;17.77;7.22;;;19.00;99.90;;;;;;4998352;28;20612;-79
2022/06/10 10:54:59;;;;;;;12.13;6.32;;;19.20;99.90;;;;;;5021384;28;20059;-80
2022/06/10 10:57:29;;;;;;;11.93;6.60;;;19.30;99.90;;;;;;5010569;28;21679;-79
2022/06/10 11:00:04;;;;;;;15.27;7.90;;;19.40;99.90;;;;;;5007195;28;20091;-80
2022/06/10 11:02:52;;;;;;;15.80;7.95;;;19.30;99.90;;;;;;5026225;28;20049;-78
2022/06/10 11:05:26;;;;;;;12.38;7.20;;;19.10;99.90;;;;;;5021072;28;20041;-73
2022/06/10 11:08:14;;;;;;;16.83;6.85;;;18.90;99.90;;;;;;5022360;28;20056;-73
2022/06/10 11:11:04;;;;;;;16.00;8.13;;;18.80;99.90;;;;;;5003816;28;20049;-73
2022/06/10 11:13:53;;;;;;;18.85;9.60;;;18.80;99.90;;;;;;5020043;28;20508;-74
2022/06/10 11:16:27;;;;;;;17.55;10.15;;;18.70;99.90;;;;;;5026610;28;20061;-74
2022/06/10 11:19:25;;;;;;;15.25;9.30;;;18.80;99.90;;;;;;4998287;28;20037;-72
2022/06/10 11:22:08;;;;;;;16.50;8.23;;;19.00;99.90;;;;;;4998706;28;20045;-72
2022/06/10 11:24:39;;;;;;;16.95;7.85;;;19.20;99.90;;;;;;5019330;28;20133;-72
2022/06/10 11:27:35;;;;;;;15.57;7.32;;;19.50;99.90;;;;;;4993300;28;20065;-73
2022/06/10 11:30:14;;;;;;;15.27;7.18;;;19.60;99.90;;;;;;5001776;28;20591;-71
2022/06/10 11:32:51;;;;;;;13.80;7.03;;;19.60;99.90;;;;;;5001497;28;20045;-71
2022/06/10 11:35:31;;;;;;;14.13;6.63;;;19.70;99.90;;;;;;5022891;28;20060;-75
2022/06/10 11:38:21;;;;;;;18.17;7.53;;;19.50;99.90;;;;;;5038459;28;20488;-78
2022/06/10 11:40:46;;;;;;;15.57;8.50;;;19.30;99.90;;;;;;5034390;28;20095;-79
2022/06/10 11:43:28;;;;;;;16.00;8.27;;;19.10;99.90;;;;;;5010484;28;20092;-78
2022/06/10 11:46:01;;;;;;;12.82;7.35;;;18.90;99.90;;;;;;5030970;28;20081;-77
2022/06/10 11:48:49;;;;;;;18.92;7.93;;;18.80;99.90;;;;;;5025288;28;20049;-77
2022/06/10 11:51:33;;;;;;;18.90;7.85;;;18.60;99.90;;;;;;4999654;28;20489;-77
2022/06/10 11:54:05;;;;;;;14.95;7.55;;;18.50;99.90;;;;;;5006766;28;20049;-75
2022/06/10 11:59:57;;;;;;;16.90;8.68;;;18.50;99.90;;;;;;5010862;28;20081;-75
2022/06/10 12:02:40;;;;;;;20.08;9.25;;;18.60;99.90;;;;;;5010995;28;20046;-75
2022/06/10 12:05:34;;;;;;;15.13;7.68;;;18.90;99.90;;;;;;5008563;28;20040;-75
2022/06/10 12:08:24;;;;;;;14.32;6.38;;;19.10;99.90;;;;;;5028950;28;20049;-80
2022/06/10 12:11:41;;;;;;;12.23;5.45;;;19.20;99.90;;;;;;5028975;28;20492;-80
2022/06/10 12:14:19;;;;;;;11.50;5.47;;;19.20;99.90;;;;;;4986890;28;20743;-80
2022/06/10 12:16:53;;;;;;;11.30;5.30;;;19.10;99.90;;;;;;5028513;28;20041;-79
2022/06/10 12:19:46;;;;;;;14.38;5.75;;;19.10;99.90;;;;;;5026787;28;20619;-75
2022/06/10 12:22:13;;;;;;;9.73;4.10;;;19.10;99.90;;;;;;5029064;28;20056;-79
2022/06/10 12:24:39;;;;;;;7.60;3.65;;;19.10;99.90;;;;;;5011435;28;20048;-78
2022/06/10 12:27:24;;;;;;;8.90;3.80;;;19.10;99.90;;;;;;5027431;28;20049;-78
2022/06/10 12:30:14;;;;;;;10.98;3.60;;;19.10;99.90;;;;;;5012564;28;20515;-77
2022/06/10 12:33:16;;;;;;;5.32;2.60;;;19.20;99.90;;;;;;5010441;28;20045;-79
2022/06/10 12:35:43;;;;;;;6.07;2.65;;;19.40;99.90;;;;;;5008553;28;20045;-79
2022/06/10 12:38:22;;;;;;;7.72;3.15;;;19.50;99.90;;;;;;5009285;28;20495;-79
2022/06/10 12:40:56;;;;;;;5.43;2.50;;;19.70;99.90;;;;;;5026201;28;20037;-80
2022/06/10 12:43:32;;;;;;;6.50;2.60;;;19.80;99.90;;;;;;5009313;28;20037;-79
2022/06/10 12:46:11;;;;;;;9.10;2.90;;;19.80;99.90;;;;;;5006082;28;20326;-79
2022/06/10 12:48:46;;;;;;;5.90;2.72;;;19.80;99.90;;;;;;5029027;28;20141;-79
2022/06/10 12:51:12;;;;;;;8.55;2.65;;;19.90;99.90;;;;;;5028059;28;20045;-79
2022/06/10 12:53:49;;;;;;;8.30;2.88;;;19.90;99.90;;;;;;5029230;28;20087;-80
2022/06/10 12:56:31;;;;;;;7.00;2.60;;;20.20;99.90;;;;;;5028005;28;20033;-79
2022/06/10 12:59:09;;;;;;;6.35;2.40;;;20.30;99.90;;;;;;5024543;28;20049;-78
2022/06/10 13:01:35;;;;;;;9.63;2.20;;;20.50;99.90;;;;;;5030827;28;20121;-78
2022/06/10 13:04:02;;;;;;;8.63;2.08;;;20.50;99.90;;;;;;5025599;28;20118;-77
2022/06/10 13:06:43;;;;;;;10.65;2.03;;;20.60;99.90;;;;;;5012163;28;20053;-81
2022/06/10 13:09:12;;;;;;;5.32;2.40;;;20.60;99.90;;;;;;5034836;28;20184;-81
2022/06/10 13:11:49;;;;;;;8.05;2.50;;;20.70;99.90;;;;;;5033631;28;20045;-79
2022/06/10 13:14:30;;;;;;;9.57;2.40;;;20.70;99.90;;;;;;5020068;28;20123;-79
2022/06/10 13:16:59;;;;;;;9.57;2.85;;;20.80;99.90;;;;;;5016959;28;20059;-79
2022/06/10 13:19:40;;;;;;;8.70;2.58;;;20.90;99.90;;;;;;5012325;28;20586;-80
2022/06/10 13:22:37;;;;;;;7.18;2.35;;;20.90;99.90;;;;;;5026799;28;20370;-78